Time;durP1;ratioP1;P1;durP2;ratioP2;P2;SDS_P1;SDS_P2;PMS_P1;PMS_P2;Temp;Humidity;BMP_temperature;BMP_pressure;BME280_temperature;BME280_humidity;BME280_pressure;Samples;Min_cycle;Max_cycle;Signal;HPM_P1;HPM_P2
2023/05/16 00:00:44;;;;;;;6.43;2.33;;;;;;;;;;5013779;28;20445;-57
2023/05/16 00:03:11;;;;;;;10.75;4.75;;;;;;;;;;5008288;28;20492;-57
2023/05/16 00:05:37;;;;;;;6.22;2.70;;;;;;;;;;5013219;28;20038;-57
2023/05/16 00:08:04;;;;;;;5.18;2.30;;;;;;;;;;5027240;28;20501;-57
2023/05/16 00:10:30;;;;;;;5.50;2.28;;;;;;;;;;5011425;28;20046;-57
2023/05/16 00:12:56;;;;;;;13.95;2.55;;;;;;;;;;5005919;28;20181;-56
2023/05/16 00:15:23;;;;;;;7.72;2.92;;;;;;;;;;5007873;28;20042;-56
2023/05/16 00:17:50;;;;;;;5.88;2.40;;;;;;;;;;5034103;28;20052;-57
2023/05/16 00:20:21;;;;;;;12.48;5.53;;;;;;;;;;5002796;28;20042;-56
2023/05/16 00:22:48;;;;;;;6.03;2.10;;;;;;;;;;5000243;28;20042;-57
2023/05/16 00:25:14;;;;;;;7.55;3.50;;;;;;;;;;4999220;28;20042;-56
2023/05/16 00:27:40;;;;;;;6.03;2.33;;;;;;;;;;5001311;28;20607;-56
2023/05/16 00:30:06;;;;;;;12.43;3.45;;;;;;;;;;5007903;28;20120;-57
2023/05/16 00:32:32;;;;;;;13.02;4.65;;;;;;;;;;5006742;28;20050;-57
2023/05/16 00:34:58;;;;;;;9.23;2.33;;;;;;;;;;5001336;28;20089;-61
2023/05/16 00:37:24;;;;;;;8.13;2.25;;;;;;;;;;5004828;28;20449;-60
2023/05/16 00:39:50;;;;;;;6.88;2.75;;;;;;;;;;5005522;28;20137;-60
2023/05/16 00:42:19;;;;;;;6.35;2.72;;;;;;;;;;4999173;28;20086;-60
2023/05/16 00:44:45;;;;;;;6.60;2.50;;;;;;;;;;5006271;28;20148;-60
2023/05/16 00:47:11;;;;;;;8.85;3.20;;;;;;;;;;5003783;28;20065;-61
2023/05/16 00:49:37;;;;;;;6.40;3.17;;;;;;;;;;5005286;28;20054;-60
2023/05/16 00:52:03;;;;;;;5.38;2.47;;;;;;;;;;5006368;28;20073;-61
2023/05/16 00:54:30;;;;;;;14.68;4.03;;;;;;;;;;5002919;28;20616;-61
2023/05/16 00:56:56;;;;;;;6.75;2.67;;;;;;;;;;5004736;28;20041;-60
2023/05/16 00:59:25;;;;;;;10.05;4.05;;;;;;;;;;5006687;28;20046;-62
2023/05/16 01:01:52;;;;;;;6.35;2.53;;;;;;;;;;5006740;28;20052;-60
2023/05/16 01:04:19;;;;;;;14.30;3.15;;;;;;;;;;5007922;28;20042;-60
2023/05/16 01:06:45;;;;;;;8.10;2.40;;;;;;;;;;5008877;28;20112;-60
2023/05/16 01:09:11;;;;;;;8.82;2.63;;;;;;;;;;5002777;28;20037;-60
2023/05/16 01:11:40;;;;;;;3.92;2.17;;;;;;;;;;5008269;28;20103;-60
2023/05/16 01:14:19;;;;;;;13.50;2.88;;;;;;;;;;5007993;28;20038;-60
2023/05/16 01:17:00;;;;;;;7.53;2.85;;;;;;;;;;5004211;28;20046;-60
2023/05/16 01:19:47;;;;;;;5.78;2.30;;;;;;;;;;5005076;28;20738;-60
2023/05/16 01:22:20;;;;;;;5.53;1.88;;;;;;;;;;5007387;28;20512;-61
2023/05/16 01:24:59;;;;;;;7.97;3.25;;;;;;;;;;5006660;28;20686;-60
2023/05/16 01:27:28;;;;;;;13.65;2.85;;;;;;;;;;5006048;28;20042;-61
2023/05/16 01:29:58;;;;;;;11.55;3.25;;;;;;;;;;5007965;28;20115;-61
2023/05/16 01:32:24;;;;;;;6.97;2.65;;;;;;;;;;5003026;28;20634;-60
2023/05/16 01:34:51;;;;;;;9.80;2.75;;;;;;;;;;5004987;28;20109;-60
2023/05/16 01:37:32;;;;;;;6.20;2.70;;;;;;;;;;5007065;28;20053;-60
2023/05/16 01:40:06;;;;;;;9.50;3.13;;;;;;;;;;5006973;28;20046;-60
2023/05/16 01:42:34;;;;;;;8.80;2.20;;;;;;;;;;5005565;28;20312;-60
2023/05/16 01:45:11;;;;;;;5.32;3.22;;;;;;;;;;5006672;28;20480;-60
2023/05/16 01:47:40;;;;;;;5.07;2.17;;;;;;;;;;5006971;28;20030;-60
2023/05/16 01:50:09;;;;;;;7.88;2.72;;;;;;;;;;5003168;28;21407;-60
2023/05/16 01:52:38;;;;;;;11.25;2.40;;;;;;;;;;5006486;28;20049;-60
2023/05/16 01:55:10;;;;;;;13.60;3.40;;;;;;;;;;5004611;28;20045;-61
2023/05/16 01:57:37;;;;;;;6.70;1.92;;;;;;;;;;5008285;28;20193;-61
2023/05/16 02:00:03;;;;;;;11.23;2.92;;;;;;;;;;5004845;28;20042;-61
2023/05/16 02:02:30;;;;;;;9.40;2.35;;;;;;;;;;5006580;28;20085;-61
2023/05/16 02:04:56;;;;;;;4.85;2.47;;;;;;;;;;5007101;28;20042;-61
2023/05/16 02:07:23;;;;;;;6.15;3.08;;;;;;;;;;5011099;28;20045;-61
2023/05/16 02:09:49;;;;;;;11.80;2.40;;;;;;;;;;5008883;28;20156;-61
2023/05/16 02:12:15;;;;;;;4.25;1.27;;;;;;;;;;5008550;28;20133;-61
2023/05/16 02:14:41;;;;;;;7.07;2.47;;;;;;;;;;5008873;28;20042;-61
2023/05/16 02:17:08;;;;;;;9.35;3.22;;;;;;;;;;5004332;28;20049;-61
2023/05/16 02:19:34;;;;;;;13.27;2.88;;;;;;;;;;5003345;28;20543;-61
2023/05/16 02:22:00;;;;;;;7.25;3.20;;;;;;;;;;5015775;28;20515;-61
2023/05/16 02:24:26;;;;;;;7.13;3.30;;;;;;;;;;5001817;28;20528;-61
2023/05/16 02:26:52;;;;;;;11.90;3.70;;;;;;;;;;5003455;28;20359;-61
2023/05/16 02:29:18;;;;;;;9.32;2.25;;;;;;;;;;5002392;28;20516;-61
2023/05/16 02:31:44;;;;;;;5.13;2.35;;;;;;;;;;5001879;28;20061;-61
2023/05/16 02:34:10;;;;;;;7.38;2.53;;;;;;;;;;5000190;28;21268;-60
2023/05/16 02:36:36;;;;;;;10.15;2.60;;;;;;;;;;5002091;28;20656;-61
2023/05/16 02:39:03;;;;;;;7.63;2.40;;;;;;;;;;5000246;28;20042;-60
2023/05/16 02:41:30;;;;;;;13.32;2.75;;;;;;;;;;5001850;28;20042;-61
2023/05/16 02:43:56;;;;;;;5.05;1.90;;;;;;;;;;5006004;28;20185;-61
2023/05/16 02:46:27;;;;;;;7.60;2.40;;;;;;;;;;4999999;28;20853;-60
2023/05/16 02:48:53;;;;;;;5.95;2.88;;;;;;;;;;4997568;28;20554;-60
2023/05/16 02:51:20;;;;;;;9.85;3.45;;;;;;;;;;5000680;28;20136;-60
2023/05/16 02:53:46;;;;;;;10.27;2.88;;;;;;;;;;4998198;28;20081;-61
2023/05/16 02:56:12;;;;;;;9.88;2.55;;;;;;;;;;5006631;28;21028;-61
2023/05/16 02:58:38;;;;;;;12.32;2.78;;;;;;;;;;5009922;28;21217;-61
2023/05/16 03:01:04;;;;;;;5.20;2.65;;;;;;;;;;5010421;28;20908;-61
2023/05/16 03:03:32;;;;;;;11.57;4.28;;;;;;;;;;5009216;28;20432;-61
2023/05/16 03:05:58;;;;;;;6.45;3.03;;;;;;;;;;5010341;28;20076;-61
2023/05/16 03:08:24;;;;;;;8.15;2.85;;;;;;;;;;5008920;28;20057;-61
2023/05/16 03:10:50;;;;;;;8.27;2.83;;;;;;;;;;5010895;28;20046;-61
2023/05/16 03:13:16;;;;;;;8.52;3.35;;;;;;;;;;5039671;28;20046;-61
2023/05/16 03:15:42;;;;;;;8.88;2.78;;;;;;;;;;5025960;28;20050;-61
2023/05/16 03:18:08;;;;;;;10.85;2.88;;;;;;;;;;5006329;28;20045;-61
2023/05/16 03:20:34;;;;;;;5.93;2.67;;;;;;;;;;5005366;28;20536;-61
2023/05/16 03:23:00;;;;;;;7.95;2.55;;;;;;;;;;5008000;28;20046;-57
2023/05/16 03:25:26;;;;;;;8.05;3.40;;;;;;;;;;5006597;28;20038;-57
2023/05/16 03:27:52;;;;;;;6.25;2.15;;;;;;;;;;5007155;28;20633;-57
2023/05/16 03:30:19;;;;;;;11.90;2.90;;;;;;;;;;5004645;28;20053;-57
2023/05/16 03:32:45;;;;;;;9.10;3.30;;;;;;;;;;5001151;28;20053;-57
2023/05/16 03:35:11;;;;;;;8.88;2.63;;;;;;;;;;4998244;28;21098;-56
2023/05/16 03:37:38;;;;;;;7.57;2.60;;;;;;;;;;5000506;28;20046;-56
2023/05/16 03:40:04;;;;;;;8.18;3.97;;;;;;;;;;5005635;28;20097;-56
2023/05/16 03:42:31;;;;;;;12.02;5.72;;;;;;;;;;5004416;28;20053;-56
2023/05/16 03:44:57;;;;;;;6.90;1.75;;;;;;;;;;5007717;28;20108;-57
2023/05/16 03:47:23;;;;;;;8.55;4.15;;;;;;;;;;5007791;28;20042;-57
2023/05/16 03:49:49;;;;;;;6.68;2.90;;;;;;;;;;5003286;28;20687;-57
2023/05/16 03:52:16;;;;;;;5.93;2.67;;;;;;;;;;5016819;28;21680;-57
2023/05/16 03:54:42;;;;;;;4.75;2.20;;;;;;;;;;5002652;28;20152;-56
2023/05/16 03:57:08;;;;;;;7.53;1.85;;;;;;;;;;5003977;28;20544;-57
2023/05/16 03:59:35;;;;;;;8.45;3.17;;;;;;;;;;5005685;28;21216;-56
2023/05/16 04:02:01;;;;;;;6.75;2.60;;;;;;;;;;5003102;28;20559;-57
2023/05/16 04:04:27;;;;;;;9.93;2.58;;;;;;;;;;5005516;28;20045;-56
2023/05/16 04:06:53;;;;;;;4.13;2.13;;;;;;;;;;5006521;28;20052;-57
2023/05/16 04:09:19;;;;;;;4.97;2.53;;;;;;;;;;5005068;28;20048;-56
2023/05/16 04:11:45;;;;;;;11.43;2.45;;;;;;;;;;5007045;28;20077;-56
2023/05/16 04:14:11;;;;;;;11.27;2.40;;;;;;;;;;5000296;28;20042;-56
2023/05/16 04:16:37;;;;;;;6.82;2.42;;;;;;;;;;5004533;28;20570;-56
2023/05/16 04:19:03;;;;;;;12.35;2.85;;;;;;;;;;5012355;28;20050;-56
2023/05/16 04:21:30;;;;;;;8.75;4.20;;;;;;;;;;5001364;28;20030;-57
2023/05/16 04:23:56;;;;;;;11.18;2.90;;;;;;;;;;5006400;28;20093;-56
2023/05/16 04:26:23;;;;;;;11.88;4.03;;;;;;;;;;5006386;28;20096;-56
2023/05/16 04:28:50;;;;;;;13.95;2.97;;;;;;;;;;5007856;28;20046;-56
2023/05/16 04:31:16;;;;;;;4.65;1.52;;;;;;;;;;5000820;28;20063;-56
2023/05/16 04:33:42;;;;;;;5.22;2.90;;;;;;;;;;5007672;28;20116;-57
2023/05/16 04:36:08;;;;;;;8.50;2.85;;;;;;;;;;5004492;28;20042;-56
2023/05/16 04:38:34;;;;;;;15.43;3.22;;;;;;;;;;5005650;28;20042;-57
2023/05/16 04:41:01;;;;;;;12.73;3.20;;;;;;;;;;5006781;28;20084;-56
2023/05/16 04:43:28;;;;;;;8.05;2.40;;;;;;;;;;5005429;28;20050;-57
2023/05/16 04:46:03;;;;;;;10.70;3.08;;;;;;;;;;5029034;28;20477;-56
2023/05/16 04:48:29;;;;;;;8.85;3.70;;;;;;;;;;5025783;28;20050;-56
2023/05/16 04:50:56;;;;;;;9.18;3.05;;;;;;;;;;5026100;28;20181;-56
2023/05/16 04:53:22;;;;;;;6.40;2.85;;;;;;;;;;5025627;28;20084;-56
2023/05/16 04:55:48;;;;;;;13.10;2.80;;;;;;;;;;5033041;28;20045;-56
2023/05/16 04:58:14;;;;;;;10.77;3.53;;;;;;;;;;5027063;28;20539;-57
2023/05/16 05:00:41;;;;;;;5.18;2.22;;;;;;;;;;5027528;28;20075;-56
2023/05/16 05:03:07;;;;;;;8.73;2.95;;;;;;;;;;5024459;28;20051;-56
2023/05/16 05:05:34;;;;;;;6.97;2.55;;;;;;;;;;5029102;28;20047;-56
2023/05/16 05:08:00;;;;;;;8.55;3.10;;;;;;;;;;5030327;28;20112;-56
2023/05/16 05:10:26;;;;;;;9.50;3.33;;;;;;;;;;5032127;28;20048;-57
2023/05/16 05:12:53;;;;;;;6.85;2.35;;;;;;;;;;5027087;28;20038;-57
2023/05/16 05:15:19;;;;;;;18.08;4.63;;;;;;;;;;5027946;28;20067;-56
2023/05/16 05:17:45;;;;;;;5.88;2.65;;;;;;;;;;5030318;28;21129;-56
2023/05/16 05:20:11;;;;;;;8.90;3.03;;;;;;;;;;5032114;28;20488;-57
2023/05/16 05:22:37;;;;;;;11.23;3.05;;;;;;;;;;5030521;28;20088;-56
2023/05/16 05:25:04;;;;;;;8.05;2.47;;;;;;;;;;5029995;28;20092;-56
2023/05/16 05:27:31;;;;;;;11.43;3.67;;;;;;;;;;5028601;28;20045;-56
2023/05/16 05:29:57;;;;;;;7.75;2.85;;;;;;;;;;5026070;28;20049;-57
2023/05/16 05:32:23;;;;;;;9.00;2.85;;;;;;;;;;5023547;28;20068;-57
2023/05/16 05:34:49;;;;;;;9.00;3.15;;;;;;;;;;5024806;28;20038;-56
2023/05/16 05:37:15;;;;;;;10.88;4.13;;;;;;;;;;5023731;28;20033;-57
2023/05/16 05:39:41;;;;;;;7.50;3.08;;;;;;;;;;5021636;28;20104;-57
2023/05/16 05:42:07;;;;;;;10.20;2.85;;;;;;;;;;5024129;28;21758;-56
2023/05/16 05:44:34;;;;;;;10.98;3.72;;;;;;;;;;5024901;28;20054;-56
2023/05/16 05:47:00;;;;;;;7.07;4.43;;;;;;;;;;5030568;28;20595;-56
2023/05/16 05:49:26;;;;;;;14.85;3.08;;;;;;;;;;5016059;28;20570;-56
2023/05/16 05:51:53;;;;;;;23.63;4.90;;;;;;;;;;5025139;28;20046;-57
2023/05/16 05:54:19;;;;;;;10.65;2.80;;;;;;;;;;5028107;28;20045;-56
2023/05/16 05:56:45;;;;;;;10.30;2.35;;;;;;;;;;5020049;28;20081;-56
2023/05/16 05:59:11;;;;;;;15.63;4.72;;;;;;;;;;5015203;28;20461;-57
2023/05/16 06:01:38;;;;;;;8.77;2.72;;;;;;;;;;5011687;28;20592;-56
2023/05/16 06:04:05;;;;;;;11.68;3.72;;;;;;;;;;5008351;28;20042;-56
2023/05/16 06:06:31;;;;;;;4.53;2.97;;;;;;;;;;5007101;28;20041;-56
2023/05/16 06:09:00;;;;;;;9.07;2.40;;;;;;;;;;5011015;28;20535;-57
2023/05/16 06:11:26;;;;;;;8.82;3.45;;;;;;;;;;5017910;28;20153;-56
2023/05/16 06:13:52;;;;;;;10.23;2.92;;;;;;;;;;5009000;28;20228;-57
2023/05/16 06:16:19;;;;;;;16.48;4.47;;;;;;;;;;5009561;28;22692;-56
2023/05/16 06:18:45;;;;;;;26.90;3.42;;;;;;;;;;5013678;28;20519;-56
2023/05/16 06:21:11;;;;;;;5.82;3.30;;;;;;;;;;5015514;28;20544;-56
2023/05/16 06:23:37;;;;;;;11.20;3.40;;;;;;;;;;5004111;28;20068;-56
2023/05/16 06:26:03;;;;;;;12.35;3.65;;;;;;;;;;5010999;28;20515;-56
2023/05/16 06:28:30;;;;;;;20.25;6.20;;;;;;;;;;5017010;28;20041;-56
2023/05/16 06:30:56;;;;;;;10.00;3.20;;;;;;;;;;5009505;28;20053;-56
2023/05/16 06:33:22;;;;;;;12.85;3.05;;;;;;;;;;5016084;28;20038;-57
2023/05/16 06:35:48;;;;;;;21.17;3.80;;;;;;;;;;5013591;28;21250;-56
2023/05/16 06:38:15;;;;;;;6.50;2.92;;;;;;;;;;5015541;28;20042;-56
2023/05/16 06:40:41;;;;;;;6.28;3.42;;;;;;;;;;5015449;28;20512;-56
2023/05/16 06:43:07;;;;;;;5.63;2.13;;;;;;;;;;5006452;28;20038;-56
2023/05/16 06:45:33;;;;;;;7.15;2.55;;;;;;;;;;5007487;28;21455;-57
2023/05/16 06:47:59;;;;;;;7.90;1.85;;;;;;;;;;5007036;28;20044;-57
2023/05/16 06:50:25;;;;;;;7.25;4.30;;;;;;;;;;5009750;28;20125;-57
2023/05/16 06:52:51;;;;;;;6.55;1.88;;;;;;;;;;5008546;28;20056;-56
2023/05/16 06:55:17;;;;;;;1.65;1.27;;;;;;;;;;5019303;28;20068;-57
2023/05/16 06:57:43;;;;;;;11.07;2.40;;;;;;;;;;5020075;28;20693;-56
2023/05/16 07:00:10;;;;;;;7.82;2.55;;;;;;;;;;5019984;28;20049;-57
2023/05/16 07:02:36;;;;;;;12.32;2.92;;;;;;;;;;5018565;28;20057;-56
2023/05/16 07:05:02;;;;;;;8.18;2.15;;;;;;;;;;5019395;28;20096;-57
2023/05/16 07:07:28;;;;;;;4.82;2.38;;;;;;;;;;5019334;28;20042;-57
2023/05/16 07:09:54;;;;;;;5.35;1.40;;;;;;;;;;5020798;28;20589;-57
2023/05/16 07:12:20;;;;;;;6.80;2.53;;;;;;;;;;5017688;28;20535;-56
2023/05/16 07:14:46;;;;;;;10.90;3.22;;;;;;;;;;5003803;28;20045;-56
2023/05/16 07:17:12;;;;;;;13.38;3.30;;;;;;;;;;5015465;28;20078;-56
2023/05/16 07:19:38;;;;;;;2.95;2.00;;;;;;;;;;5019921;28;20042;-56
2023/05/16 07:22:05;;;;;;;19.05;3.33;;;;;;;;;;5021243;28;20046;-55
2023/05/16 07:24:31;;;;;;;8.00;1.88;;;;;;;;;;5020368;28;20042;-56
2023/05/16 07:26:57;;;;;;;6.78;3.38;;;;;;;;;;5020422;28;21078;-56
2023/05/16 07:29:23;;;;;;;5.57;1.30;;;;;;;;;;5021399;28;20566;-56
2023/05/16 07:31:49;;;;;;;6.80;1.58;;;;;;;;;;5021262;28;21346;-56
2023/05/16 07:34:16;;;;;;;4.38;1.70;;;;;;;;;;5004774;28;20037;-56
2023/05/16 07:36:42;;;;;;;12.65;3.72;;;;;;;;;;5018870;28;20046;-56
2023/05/16 07:39:08;;;;;;;11.60;2.92;;;;;;;;;;5018687;28;20038;-56
2023/05/16 07:41:34;;;;;;;6.38;2.45;;;;;;;;;;5019267;28;20091;-56
2023/05/16 07:44:00;;;;;;;12.88;3.40;;;;;;;;;;5017525;28;20503;-56
2023/05/16 07:46:26;;;;;;;2.47;1.63;;;;;;;;;;5020527;28;20029;-56
2023/05/16 07:48:52;;;;;;;6.55;3.15;;;;;;;;;;5017009;28;20049;-56
2023/05/16 07:51:18;;;;;;;7.38;2.50;;;;;;;;;;5018010;28;20042;-56
2023/05/16 07:53:45;;;;;;;18.20;3.92;;;;;;;;;;5018559;28;20042;-56
2023/05/16 07:56:11;;;;;;;9.73;3.22;;;;;;;;;;5017516;28;20494;-56
2023/05/16 07:58:38;;;;;;;2.92;1.05;;;;;;;;;;5016117;28;20042;-56
2023/05/16 08:01:04;;;;;;;8.50;2.53;;;;;;;;;;5017050;28;20049;-56
2023/05/16 08:03:30;;;;;;;5.63;1.73;;;;;;;;;;5015644;28;20050;-56
2023/05/16 08:05:56;;;;;;;2.95;1.35;;;;;;;;;;5019628;28;20042;-56
2023/05/16 08:08:22;;;;;;;4.25;2.22;;;;;;;;;;5017563;28;20112;-56
2023/05/16 08:10:48;;;;;;;2.65;1.30;;;;;;;;;;5020742;28;20457;-56
2023/05/16 08:13:15;;;;;;;6.45;2.25;;;;;;;;;;5016545;28;20075;-56
2023/05/16 08:15:41;;;;;;;5.97;2.00;;;;;;;;;;5019002;28;20050;-56
2023/05/16 08:18:13;;;;;;;2.92;1.75;;;;;;;;;;5016310;28;20440;-56
2023/05/16 08:20:40;;;;;;;3.42;1.50;;;;;;;;;;5017702;28;20052;-56
2023/05/16 08:23:06;;;;;;;8.85;1.90;;;;;;;;;;5018720;28;20910;-56
2023/05/16 08:25:32;;;;;;;4.68;1.00;;;;;;;;;;5017164;28;20046;-56
2023/05/16 08:28:00;;;;;;;2.33;0.85;;;;;;;;;;5019242;28;20046;-56
2023/05/16 08:30:26;;;;;;;2.25;1.10;;;;;;;;;;5018005;28;20965;-56
2023/05/16 08:32:52;;;;;;;3.60;2.28;;;;;;;;;;5019504;28;20057;-56
2023/05/16 08:35:19;;;;;;;3.35;1.48;;;;;;;;;;5005278;28;20119;-56
2023/05/16 08:37:45;;;;;;;3.95;1.50;;;;;;;;;;5019866;28;20042;-56
2023/05/16 08:40:13;;;;;;;2.15;1.95;;;;;;;;;;5018795;28;20120;-57
2023/05/16 08:42:39;;;;;;;2.00;1.05;;;;;;;;;;5017698;28;20060;-56
2023/05/16 08:45:07;;;;;;;9.55;2.38;;;;;;;;;;5007263;28;20503;-56
2023/05/16 08:47:35;;;;;;;3.20;1.20;;;;;;;;;;5018758;28;20405;-56
2023/05/16 08:50:03;;;;;;;9.80;2.33;;;;;;;;;;5016096;28;20038;-56
2023/05/16 08:52:30;;;;;;;5.18;0.82;;;;;;;;;;5016004;28;20108;-56
2023/05/16 08:55:04;;;;;;;6.00;1.48;;;;;;;;;;5020348;28;20050;-56
2023/05/16 08:57:31;;;;;;;5.45;1.42;;;;;;;;;;5018989;28;20562;-56
2023/05/16 08:59:58;;;;;;;4.10;1.20;;;;;;;;;;5014931;28;20044;-56
2023/05/16 09:02:24;;;;;;;1.88;0.85;;;;;;;;;;5018204;28;20041;-56
2023/05/16 09:04:51;;;;;;;3.38;1.50;;;;;;;;;;5015995;28;20101;-56
2023/05/16 09:07:17;;;;;;;4.35;1.27;;;;;;;;;;5018551;28;20046;-56
2023/05/16 09:09:43;;;;;;;1.92;0.93;;;;;;;;;;5006891;28;20041;-56
2023/05/16 09:12:09;;;;;;;5.25;1.88;;;;;;;;;;5019142;28;20043;-56
2023/05/16 09:14:35;;;;;;;4.13;1.40;;;;;;;;;;5019024;28;20041;-56
2023/05/16 09:17:04;;;;;;;2.83;1.13;;;;;;;;;;5017538;28;20045;-56
2023/05/16 09:19:39;;;;;;;5.85;1.85;;;;;;;;;;5016208;28;20112;-56
2023/05/16 09:22:09;;;;;;;6.32;1.63;;;;;;;;;;5017600;28;20065;-56
2023/05/16 09:24:45;;;;;;;6.00;1.33;;;;;;;;;;5017983;28;20049;-56
2023/05/16 09:27:12;;;;;;;4.25;1.00;;;;;;;;;;5017748;28;20105;-56
2023/05/16 09:29:42;;;;;;;2.65;0.95;;;;;;;;;;5017716;28;20038;-56
2023/05/16 09:32:18;;;;;;;3.47;0.90;;;;;;;;;;5021925;28;20045;-56
2023/05/16 09:34:46;;;;;;;5.82;1.77;;;;;;;;;;5020515;28;20054;-56
2023/05/16 09:37:13;;;;;;;1.23;0.65;;;;;;;;;;5020460;28;20049;-56
2023/05/16 09:39:40;;;;;;;4.90;1.40;;;;;;;;;;5022906;28;20046;-57
2023/05/16 09:42:11;;;;;;;7.18;1.55;;;;;;;;;;5018093;28;20041;-56
2023/05/16 09:44:37;;;;;;;1.80;1.05;;;;;;;;;;5022352;28;20058;-56
2023/05/16 09:47:04;;;;;;;7.13;0.80;;;;;;;;;;5022641;28;20041;-56
2023/05/16 09:49:30;;;;;;;2.65;1.58;;;;;;;;;;5007378;28;20037;-56
2023/05/16 09:51:59;;;;;;;1.60;0.90;;;;;;;;;;5019530;28;20038;-56
2023/05/16 09:54:32;;;;;;;1.60;1.00;;;;;;;;;;5021876;28;20041;-56
2023/05/16 09:56:59;;;;;;;3.40;1.13;;;;;;;;;;5021347;28;20108;-56
2023/05/16 09:59:25;;;;;;;2.55;0.93;;;;;;;;;;5019859;28;20072;-56
2023/05/16 10:01:53;;;;;;;1.13;0.93;;;;;;;;;;5022220;28;20080;-56
2023/05/16 10:04:19;;;;;;;4.47;1.10;;;;;;;;;;5022422;28;21119;-56
2023/05/16 10:06:46;;;;;;;8.82;1.45;;;;;;;;;;5011972;28;20069;-56
2023/05/16 10:09:12;;;;;;;4.35;1.67;;;;;;;;;;5051050;28;20045;-56
2023/05/16 10:11:41;;;;;;;3.92;0.88;;;;;;;;;;5022752;28;20525;-56
2023/05/16 10:14:09;;;;;;;2.15;1.30;;;;;;;;;;5021235;28;20124;-56
2023/05/16 10:16:35;;;;;;;2.53;1.17;;;;;;;;;;5022068;28;20042;-57
2023/05/16 10:19:02;;;;;;;4.05;1.40;;;;;;;;;;5020387;28;21118;-56
2023/05/16 10:21:29;;;;;;;3.50;0.80;;;;;;;;;;5022158;28;20077;-56
2023/05/16 10:23:56;;;;;;;5.30;2.70;;;;;;;;;;5019819;28;20049;-56
2023/05/16 10:26:23;;;;;;;3.80;2.15;;;;;;;;;;5020956;28;20491;-56
2023/05/16 10:28:50;;;;;;;5.30;2.88;;;;;;;;;;5023480;28;20639;-56
2023/05/16 10:31:16;;;;;;;1.00;0.60;;;;;;;;;;5021244;28;20536;-56
2023/05/16 10:33:43;;;;;;;3.08;0.70;;;;;;;;;;5007486;28;20046;-56
2023/05/16 10:36:10;;;;;;;1.75;1.45;;;;;;;;;;5021733;28;20048;-56
2023/05/16 10:38:37;;;;;;;5.65;1.27;;;;;;;;;;5021761;28;20435;-56
2023/05/16 10:41:03;;;;;;;5.75;1.50;;;;;;;;;;5019928;28;20041;-56
2023/05/16 10:43:29;;;;;;;5.45;1.90;;;;;;;;;;5051003;28;20037;-57
2023/05/16 10:46:08;;;;;;;3.42;0.75;;;;;;;;;;5019487;28;20602;-57
2023/05/16 10:48:38;;;;;;;0.50;0.50;;;;;;;;;;5020935;28;20041;-56
2023/05/16 10:51:23;;;;;;;2.60;1.38;;;;;;;;;;5019767;28;20100;-57
2023/05/16 10:53:53;;;;;;;1.63;1.00;;;;;;;;;;5021201;28;20590;-56
2023/05/16 10:56:23;;;;;;;1.48;0.80;;;;;;;;;;5050246;28;20124;-56
2023/05/16 10:58:49;;;;;;;3.03;1.23;;;;;;;;;;5020119;28;20042;-56
2023/05/16 11:01:26;;;;;;;3.47;0.82;;;;;;;;;;5020904;28;20195;-56
2023/05/16 11:03:58;;;;;;;0.93;0.70;;;;;;;;;;5036893;28;20046;-56
2023/05/16 11:06:33;;;;;;;6.70;1.50;;;;;;;;;;5019659;28;20049;-56
2023/05/16 11:09:09;;;;;;;2.47;1.00;;;;;;;;;;5019415;28;20124;-56
2023/05/16 11:11:41;;;;;;;4.90;1.48;;;;;;;;;;5021945;28;20695;-56
2023/05/16 11:14:07;;;;;;;;;;;;;;;;;;5019664;28;20561;-56
2023/05/16 11:16:33;;;;;;;1.73;0.73;;;;;;;;;;5022140;28;19952;-56
2023/05/16 11:19:06;;;;;;;2.97;0.80;;;;;;;;;;5019620;28;20099;-56
2023/05/16 11:21:51;;;;;;;1.63;0.82;;;;;;;;;;5022331;28;20037;-56
2023/05/16 11:24:33;;;;;;;2.33;0.90;;;;;;;;;;5018340;28;20046;-57
2023/05/16 11:27:00;;;;;;;2.53;1.23;;;;;;;;;;5020050;28;20709;-57
2023/05/16 11:29:31;;;;;;;1.52;1.42;;;;;;;;;;5017905;28;20042;-56
2023/05/16 11:32:01;;;;;;;5.65;1.48;;;;;;;;;;5018800;28;20563;-57
2023/05/16 11:34:28;;;;;;;5.97;1.50;;;;;;;;;;5017437;28;20084;-57
2023/05/16 11:36:55;;;;;;;1.55;0.88;;;;;;;;;;5020902;28;20748;-57
2023/05/16 11:39:23;;;;;;;3.28;1.63;;;;;;;;;;5015891;28;20539;-56
2023/05/16 11:41:50;;;;;;;5.80;1.30;;;;;;;;;;5019302;28;20042;-56
2023/05/16 11:44:16;;;;;;;4.75;0.85;;;;;;;;;;5016998;28;20933;-56
2023/05/16 11:46:42;;;;;;;3.63;0.93;;;;;;;;;;5019165;28;20162;-56
2023/05/16 11:49:12;;;;;;;1.27;0.55;;;;;;;;;;5020405;28;20052;-56
2023/05/16 11:51:42;;;;;;;6.13;1.27;;;;;;;;;;5016803;28;20060;-56
2023/05/16 11:54:12;;;;;;;4.20;1.05;;;;;;;;;;5018421;28;20494;-56
2023/05/16 11:56:39;;;;;;;6.40;2.22;;;;;;;;;;5019682;28;20057;-56
2023/05/16 11:59:05;;;;;;;0.52;0.52;;;;;;;;;;5020475;28;20598;-56
2023/05/16 12:01:36;;;;;;;1.00;0.55;;;;;;;;;;5020199;28;20985;-56
2023/05/16 12:04:03;;;;;;;1.60;0.82;;;;;;;;;;5019018;28;20038;-56
2023/05/16 12:06:30;;;;;;;1.48;0.70;;;;;;;;;;5017947;28;20072;-56
2023/05/16 12:08:56;;;;;;;1.92;1.35;;;;;;;;;;5019662;28;20049;-56
2023/05/16 12:11:25;;;;;;;1.38;0.60;;;;;;;;;;5017551;28;20562;-56
2023/05/16 12:13:52;;;;;;;1.15;0.50;;;;;;;;;;5020436;28;20044;-56
2023/05/16 12:16:18;;;;;;;0.40;0.40;;;;;;;;;;5018777;28;20455;-56
2023/05/16 12:18:44;;;;;;;3.53;0.80;;;;;;;;;;5019654;28;20034;-56
2023/05/16 12:21:10;;;;;;;3.53;1.35;;;;;;;;;;5017300;28;20034;-57
2023/05/16 12:23:36;;;;;;;7.53;1.65;;;;;;;;;;5017776;28;20081;-57
2023/05/16 12:26:07;;;;;;;9.27;1.20;;;;;;;;;;5019660;28;20138;-56
2023/05/16 12:28:34;;;;;;;5.53;1.17;;;;;;;;;;5018123;28;20050;-57
2023/05/16 12:31:01;;;;;;;4.70;1.15;;;;;;;;;;5005377;28;20037;-56
2023/05/16 12:33:27;;;;;;;2.08;0.57;;;;;;;;;;5012206;28;20041;-56
2023/05/16 12:35:53;;;;;;;3.10;0.77;;;;;;;;;;5013128;28;20052;-56
2023/05/16 12:38:20;;;;;;;1.95;0.90;;;;;;;;;;5012744;28;20093;-56
2023/05/16 12:40:47;;;;;;;1.38;0.82;;;;;;;;;;5012651;28;20064;-56
2023/05/16 12:43:16;;;;;;;1.05;0.65;;;;;;;;;;5013945;28;20045;-56
2023/05/16 12:45:48;;;;;;;3.35;1.40;;;;;;;;;;5017453;28;20159;-56
2023/05/16 12:48:14;;;;;;;;;;;;;;;;;;5019238;28;20049;-56
2023/05/16 12:50:40;;;;;;;1.92;1.00;;;;;;;;;;5013813;28;20415;-56
2023/05/16 12:53:11;;;;;;;4.75;1.00;;;;;;;;;;5014841;28;20046;-56
2023/05/16 12:55:37;;;;;;;4.57;1.50;;;;;;;;;;5018397;28;20038;-56
2023/05/16 12:58:03;;;;;;;4.95;0.98;;;;;;;;;;5019507;28;20038;-57
2023/05/16 13:00:30;;;;;;;2.50;1.10;;;;;;;;;;5018573;28;20064;-56
2023/05/16 13:02:57;;;;;;;1.40;0.68;;;;;;;;;;5017939;28;20917;-56
2023/05/16 13:05:23;;;;;;;3.10;0.75;;;;;;;;;;5004928;28;20108;-56
2023/05/16 13:07:52;;;;;;;2.25;0.80;;;;;;;;;;5023669;28;20038;-56
2023/05/16 13:10:18;;;;;;;2.72;0.93;;;;;;;;;;5020085;28;20050;-56
2023/05/16 13:12:45;;;;;;;1.17;0.68;;;;;;;;;;5022901;28;20583;-57
2023/05/16 13:15:11;;;;;;;1.55;0.82;;;;;;;;;;5015049;28;20510;-57
2023/05/16 13:17:38;;;;;;;6.47;1.20;;;;;;;;;;5017499;28;20038;-56
2023/05/16 13:20:08;;;;;;;0.98;0.50;;;;;;;;;;5020895;28;20042;-56
2023/05/16 13:22:34;;;;;;;2.63;1.00;;;;;;;;;;5021539;28;20049;-57
2023/05/16 13:25:00;;;;;;;12.57;2.40;;;;;;;;;;5022289;28;20046;-56
2023/05/16 13:27:27;;;;;;;7.15;1.27;;;;;;;;;;5020512;28;20046;-57
2023/05/16 13:29:53;;;;;;;7.20;2.33;;;;;;;;;;5020186;28;20133;-56
2023/05/16 13:32:19;;;;;;;7.15;1.52;;;;;;;;;;5019449;28;20075;-57
2023/05/16 13:34:45;;;;;;;2.05;0.88;;;;;;;;;;5021040;28;20594;-57
2023/05/16 13:37:11;;;;;;;3.72;1.30;;;;;;;;;;5021306;28;20532;-57
2023/05/16 13:39:37;;;;;;;1.65;1.10;;;;;;;;;;5022128;28;20067;-56
2023/05/16 13:42:03;;;;;;;3.38;1.00;;;;;;;;;;5019889;28;20599;-57
2023/05/16 13:44:30;;;;;;;8.57;1.52;;;;;;;;;;5007531;28;20258;-57
2023/05/16 13:46:59;;;;;;;1.77;0.73;;;;;;;;;;5020949;28;20102;-57
2023/05/16 13:49:25;;;;;;;2.50;0.70;;;;;;;;;;5020608;28;20495;-57
2023/05/16 13:51:52;;;;;;;0.82;0.57;;;;;;;;;;5019788;28;20041;-57
2023/05/16 13:54:18;;;;;;;1.67;0.90;;;;;;;;;;5006885;28;20574;-57
2023/05/16 13:56:44;;;;;;;5.25;1.27;;;;;;;;;;5020929;28;20100;-57
2023/05/16 13:59:11;;;;;;;3.97;1.20;;;;;;;;;;5020650;28;20049;-57
2023/05/16 14:01:37;;;;;;;1.77;1.35;;;;;;;;;;5019539;28;20046;-57
2023/05/16 14:04:03;;;;;;;0.90;0.60;;;;;;;;;;5021494;28;20049;-57
2023/05/16 14:06:30;;;;;;;3.50;0.75;;;;;;;;;;5007478;28;20154;-57
2023/05/16 14:08:56;;;;;;;5.40;1.42;;;;;;;;;;5021670;28;20042;-57
2023/05/16 14:11:26;;;;;;;1.75;0.80;;;;;;;;;;5018642;28;20038;-57
2023/05/16 14:13:52;;;;;;;1.08;0.95;;;;;;;;;;5022332;28;20162;-57
2023/05/16 14:16:18;;;;;;;5.53;1.15;;;;;;;;;;5020383;28;20077;-57
2023/05/16 14:18:44;;;;;;;8.50;1.88;;;;;;;;;;5019161;28;20034;-57
2023/05/16 14:21:10;;;;;;;2.70;1.02;;;;;;;;;;5019768;28;20033;-57
2023/05/16 14:23:36;;;;;;;2.00;0.88;;;;;;;;;;5021912;28;20128;-57
2023/05/16 14:26:03;;;;;;;2.08;0.77;;;;;;;;;;5019655;28;20041;-57
2023/05/16 14:28:31;;;;;;;1.90;1.20;;;;;;;;;;5018311;28;20520;-57
2023/05/16 14:30:57;;;;;;;3.53;0.65;;;;;;;;;;5018687;28;20431;-57
2023/05/16 14:33:23;;;;;;;1.55;1.13;;;;;;;;;;5020683;28;20046;-57
2023/05/16 14:35:50;;;;;;;2.08;0.50;;;;;;;;;;5019569;28;20052;-57
2023/05/16 14:38:17;;;;;;;3.33;1.00;;;;;;;;;;5021649;28;20547;-57
2023/05/16 14:40:43;;;;;;;3.92;0.98;;;;;;;;;;5016151;28;20129;-57